sensor_id;sensor_type;location;lat;lon;timestamp;pressure;altitude;pressure_sealevel;temperature
75822;BMP180;64454;51.984;9.838;2023-03-14T00:00:09;97739.00;;;11.60
75822;BMP180;64454;51.984;9.838;2023-03-14T00:02:37;97739.00;;;11.80
75822;BMP180;64454;51.984;9.838;2023-03-14T00:05:05;97741.00;;;11.80
75822;BMP180;64454;51.984;9.838;2023-03-14T00:07:34;97736.00;;;11.70
75822;BMP180;64454;51.984;9.838;2023-03-14T00:10:04;97735.00;;;11.50
75822;BMP180;64454;51.984;9.838;2023-03-14T00:12:31;97730.00;;;11.60
75822;BMP180;64454;51.984;9.838;2023-03-14T00:14:59;97717.00;;;11.70
75822;BMP180;64454;51.984;9.838;2023-03-14T00:17:30;97706.00;;;11.70
75822;BMP180;64454;51.984;9.838;2023-03-14T00:19:57;97687.00;;;11.80
75822;BMP180;64454;51.984;9.838;2023-03-14T00:22:29;97706.00;;;11.70
75822;BMP180;64454;51.984;9.838;2023-03-14T00:24:56;97748.00;;;11.50
75822;BMP180;64454;51.984;9.838;2023-03-14T00:27:23;97730.00;;;11.60
75822;BMP180;64454;51.984;9.838;2023-03-14T00:29:50;97734.00;;;11.70
75822;BMP180;64454;51.984;9.838;2023-03-14T00:32:17;97724.00;;;11.70
75822;BMP180;64454;51.984;9.838;2023-03-14T00:34:45;97739.00;;;11.60
75822;BMP180;64454;51.984;9.838;2023-03-14T00:37:11;97752.00;;;11.50
75822;BMP180;64454;51.984;9.838;2023-03-14T00:39:38;97746.00;;;11.50
75822;BMP180;64454;51.984;9.838;2023-03-14T00:42:05;97751.00;;;11.40
75822;BMP180;64454;51.984;9.838;2023-03-14T00:44:32;97769.00;;;11.50
75822;BMP180;64454;51.984;9.838;2023-03-14T00:47:00;97762.00;;;11.50
75822;BMP180;64454;51.984;9.838;2023-03-14T00:49:27;97773.00;;;11.70
75822;BMP180;64454;51.984;9.838;2023-03-14T00:51:55;97773.00;;;11.70
75822;BMP180;64454;51.984;9.838;2023-03-14T00:54:22;97757.00;;;11.70
75822;BMP180;64454;51.984;9.838;2023-03-14T00:56:49;97759.00;;;11.60
75822;BMP180;64454;51.984;9.838;2023-03-14T00:59:18;97759.00;;;11.60
75822;BMP180;64454;51.984;9.838;2023-03-14T01:01:46;97767.00;;;11.50
75822;BMP180;64454;51.984;9.838;2023-03-14T01:04:14;97758.00;;;11.50
75822;BMP180;64454;51.984;9.838;2023-03-14T01:06:41;97754.00;;;11.50
75822;BMP180;64454;51.984;9.838;2023-03-14T01:09:10;97743.00;;;11.40
75822;BMP180;64454;51.984;9.838;2023-03-14T01:11:37;97740.00;;;11.40
75822;BMP180;64454;51.984;9.838;2023-03-14T01:14:04;97732.00;;;11.50
75822;BMP180;64454;51.984;9.838;2023-03-14T01:16:34;97756.00;;;11.40
75822;BMP180;64454;51.984;9.838;2023-03-14T01:19:01;97751.00;;;11.50
75822;BMP180;64454;51.984;9.838;2023-03-14T01:21:31;97750.00;;;11.40
75822;BMP180;64454;51.984;9.838;2023-03-14T01:24:00;97724.00;;;11.40
75822;BMP180;64454;51.984;9.838;2023-03-14T01:26:31;97700.00;;;11.50
75822;BMP180;64454;51.984;9.838;2023-03-14T01:29:00;97722.00;;;11.50
75822;BMP180;64454;51.984;9.838;2023-03-14T01:31:27;97728.00;;;11.40
75822;BMP180;64454;51.984;9.838;2023-03-14T01:33:54;97730.00;;;11.30
75822;BMP180;64454;51.984;9.838;2023-03-14T01:36:21;97720.00;;;11.30
75822;BMP180;64454;51.984;9.838;2023-03-14T01:38:48;97732.00;;;11.30
75822;BMP180;64454;51.984;9.838;2023-03-14T01:41:18;97747.00;;;11.40
75822;BMP180;64454;51.984;9.838;2023-03-14T01:43:48;97741.00;;;11.30
75822;BMP180;64454;51.984;9.838;2023-03-14T01:46:38;97726.00;;;11.20
75822;BMP180;64454;51.984;9.838;2023-03-14T01:49:26;97715.00;;;11.10
75822;BMP180;64454;51.984;9.838;2023-03-14T01:51:59;97701.00;;;11.10
75822;BMP180;64454;51.984;9.838;2023-03-14T01:54:32;97687.00;;;11.10
75822;BMP180;64454;51.984;9.838;2023-03-14T01:57:07;97675.00;;;11.10
75822;BMP180;64454;51.984;9.838;2023-03-14T01:59:38;97674.00;;;11.20
75822;BMP180;64454;51.984;9.838;2023-03-14T02:02:09;97662.00;;;11.20
75822;BMP180;64454;51.984;9.838;2023-03-14T02:04:39;97670.00;;;11.10
75822;BMP180;64454;51.984;9.838;2023-03-14T02:07:12;97660.00;;;11.20
75822;BMP180;64454;51.984;9.838;2023-03-14T02:09:41;97659.00;;;11.20
75822;BMP180;64454;51.984;9.838;2023-03-14T02:12:11;97666.00;;;11.30
75822;BMP180;64454;51.984;9.838;2023-03-14T02:14:42;97660.00;;;11.30
75822;BMP180;64454;51.984;9.838;2023-03-14T02:17:15;97677.00;;;11.20
75822;BMP180;64454;51.984;9.838;2023-03-14T02:20:09;97674.00;;;11.20
75822;BMP180;64454;51.984;9.838;2023-03-14T02:22:40;97674.00;;;11.20
75822;BMP180;64454;51.984;9.838;2023-03-14T02:25:14;97672.00;;;11.30
75822;BMP180;64454;51.984;9.838;2023-03-14T02:27:44;97681.00;;;11.20
75822;BMP180;64454;51.984;9.838;2023-03-14T02:30:16;97680.00;;;11.20
75822;BMP180;64454;51.984;9.838;2023-03-14T02:32:47;97660.00;;;11.30
75822;BMP180;64454;51.984;9.838;2023-03-14T02:35:19;97674.00;;;11.30
75822;BMP180;64454;51.984;9.838;2023-03-14T02:37:52;97658.00;;;11.30
75822;BMP180;64454;51.984;9.838;2023-03-14T02:40:21;97640.00;;;11.50
75822;BMP180;64454;51.984;9.838;2023-03-14T02:42:49;97667.00;;;11.30
75822;BMP180;64454;51.984;9.838;2023-03-14T02:45:42;97664.00;;;11.20
75822;BMP180;64454;51.984;9.838;2023-03-14T02:48:16;97646.00;;;11.30
75822;BMP180;64454;51.984;9.838;2023-03-14T02:50:47;97626.00;;;11.20
75822;BMP180;64454;51.984;9.838;2023-03-14T02:53:18;97638.00;;;11.30
75822;BMP180;64454;51.984;9.838;2023-03-14T02:55:46;97650.00;;;11.30
75822;BMP180;64454;51.984;9.838;2023-03-14T02:58:15;97638.00;;;11.20
75822;BMP180;64454;51.984;9.838;2023-03-14T03:00:42;97643.00;;;11.20
75822;BMP180;64454;51.984;9.838;2023-03-14T03:03:10;97651.00;;;11.20
75822;BMP180;64454;51.984;9.838;2023-03-14T03:05:37;97651.00;;;11.20
75822;BMP180;64454;51.984;9.838;2023-03-14T03:08:04;97665.00;;;11.20
75822;BMP180;64454;51.984;9.838;2023-03-14T03:10:32;97645.00;;;11.20
75822;BMP180;64454;51.984;9.838;2023-03-14T03:12:59;97646.00;;;11.10
75822;BMP180;64454;51.984;9.838;2023-03-14T03:15:28;97633.00;;;11.00
75822;BMP180;64454;51.984;9.838;2023-03-14T03:17:55;97641.00;;;11.10
75822;BMP180;64454;51.984;9.838;2023-03-14T03:20:21;97620.00;;;11.00
75822;BMP180;64454;51.984;9.838;2023-03-14T03:22:48;97611.00;;;10.80
75822;BMP180;64454;51.984;9.838;2023-03-14T03:25:16;97628.00;;;11.00
75822;BMP180;64454;51.984;9.838;2023-03-14T03:27:42;97642.00;;;11.00
75822;BMP180;64454;51.984;9.838;2023-03-14T03:30:10;97622.00;;;11.00
75822;BMP180;64454;51.984;9.838;2023-03-14T03:32:38;97653.00;;;11.00
75822;BMP180;64454;51.984;9.838;2023-03-14T03:35:07;97622.00;;;10.90
75822;BMP180;64454;51.984;9.838;2023-03-14T03:37:34;97614.00;;;10.90
75822;BMP180;64454;51.984;9.838;2023-03-14T03:40:01;97619.00;;;11.00
75822;BMP180;64454;51.984;9.838;2023-03-14T03:42:31;97619.00;;;11.00
75822;BMP180;64454;51.984;9.838;2023-03-14T03:44:58;97615.00;;;11.20
75822;BMP180;64454;51.984;9.838;2023-03-14T03:47:25;97615.00;;;11.00
75822;BMP180;64454;51.984;9.838;2023-03-14T03:49:53;97640.00;;;11.10
75822;BMP180;64454;51.984;9.838;2023-03-14T03:52:20;97617.00;;;11.00
75822;BMP180;64454;51.984;9.838;2023-03-14T03:54:47;97628.00;;;11.00
75822;BMP180;64454;51.984;9.838;2023-03-14T03:57:13;97637.00;;;11.00
75822;BMP180;64454;51.984;9.838;2023-03-14T03:59:40;97626.00;;;11.00
75822;BMP180;64454;51.984;9.838;2023-03-14T04:02:07;97642.00;;;11.00
75822;BMP180;64454;51.984;9.838;2023-03-14T04:04:34;97636.00;;;11.00
75822;BMP180;64454;51.984;9.838;2023-03-14T04:07:02;97639.00;;;11.00
75822;BMP180;64454;51.984;9.838;2023-03-14T04:09:30;97653.00;;;11.00
75822;BMP180;64454;51.984;9.838;2023-03-14T04:11:57;97669.00;;;10.80
75822;BMP180;64454;51.984;9.838;2023-03-14T04:14:24;97669.00;;;10.70
75822;BMP180;64454;51.984;9.838;2023-03-14T04:16:50;97685.00;;;10.50
75822;BMP180;64454;51.984;9.838;2023-03-14T04:19:18;97685.00;;;10.50
75822;BMP180;64454;51.984;9.838;2023-03-14T04:21:45;97696.00;;;10.40
75822;BMP180;64454;51.984;9.838;2023-03-14T04:24:15;97669.00;;;10.40
75822;BMP180;64454;51.984;9.838;2023-03-14T04:26:42;97670.00;;;10.40
75822;BMP180;64454;51.984;9.838;2023-03-14T04:29:10;97656.00;;;10.30
75822;BMP180;64454;51.984;9.838;2023-03-14T04:31:37;97658.00;;;10.20
75822;BMP180;64454;51.984;9.838;2023-03-14T04:34:03;97650.00;;;10.20
75822;BMP180;64454;51.984;9.838;2023-03-14T04:36:31;97643.00;;;10.30
75822;BMP180;64454;51.984;9.838;2023-03-14T04:38:57;97649.00;;;10.30
75822;BMP180;64454;51.984;9.838;2023-03-14T04:41:26;97648.00;;;10.30
75822;BMP180;64454;51.984;9.838;2023-03-14T04:43:52;97641.00;;;10.20
75822;BMP180;64454;51.984;9.838;2023-03-14T04:46:19;97628.00;;;10.10
75822;BMP180;64454;51.984;9.838;2023-03-14T04:48:46;97630.00;;;9.90
75822;BMP180;64454;51.984;9.838;2023-03-14T04:51:13;97628.00;;;10.00
75822;BMP180;64454;51.984;9.838;2023-03-14T04:53:39;97620.00;;;9.80
75822;BMP180;64454;51.984;9.838;2023-03-14T04:56:08;97636.00;;;9.70
75822;BMP180;64454;51.984;9.838;2023-03-14T04:58:36;97630.00;;;9.80
75822;BMP180;64454;51.984;9.838;2023-03-14T05:01:04;97645.00;;;9.80
75822;BMP180;64454;51.984;9.838;2023-03-14T05:03:31;97644.00;;;9.90
75822;BMP180;64454;51.984;9.838;2023-03-14T05:05:58;97644.00;;;10.00
75822;BMP180;64454;51.984;9.838;2023-03-14T05:08:26;97636.00;;;10.00
75822;BMP180;64454;51.984;9.838;2023-03-14T05:10:53;97645.00;;;9.80
75822;BMP180;64454;51.984;9.838;2023-03-14T05:13:20;97644.00;;;9.80
75822;BMP180;64454;51.984;9.838;2023-03-14T05:15:49;97621.00;;;9.70
75822;BMP180;64454;51.984;9.838;2023-03-14T05:18:16;97612.00;;;9.40
75822;BMP180;64454;51.984;9.838;2023-03-14T05:20:43;97609.00;;;9.30
75822;BMP180;64454;51.984;9.838;2023-03-14T05:23:10;97612.00;;;9.40
75822;BMP180;64454;51.984;9.838;2023-03-14T05:25:37;97603.00;;;9.50
75822;BMP180;64454;51.984;9.838;2023-03-14T05:28:04;97610.00;;;9.30
75822;BMP180;64454;51.984;9.838;2023-03-14T05:30:31;97596.00;;;9.30
75822;BMP180;64454;51.984;9.838;2023-03-14T05:33:00;97604.00;;;9.50
75822;BMP180;64454;51.984;9.838;2023-03-14T05:35:27;97607.00;;;9.40
75822;BMP180;64454;51.984;9.838;2023-03-14T05:37:54;97604.00;;;9.30
75822;BMP180;64454;51.984;9.838;2023-03-14T05:40:21;97609.00;;;9.20
75822;BMP180;64454;51.984;9.838;2023-03-14T05:42:47;97606.00;;;9.20
75822;BMP180;64454;51.984;9.838;2023-03-14T05:45:14;97593.00;;;9.20
75822;BMP180;64454;51.984;9.838;2023-03-14T05:47:41;97593.00;;;9.30
75822;BMP180;64454;51.984;9.838;2023-03-14T05:50:10;97593.00;;;9.20
75822;BMP180;64454;51.984;9.838;2023-03-14T05:52:37;97596.00;;;9.20
75822;BMP180;64454;51.984;9.838;2023-03-14T05:55:05;97587.00;;;9.10
75822;BMP180;64454;51.984;9.838;2023-03-14T05:57:32;97578.00;;;9.30
75822;BMP180;64454;51.984;9.838;2023-03-14T05:59:59;97575.00;;;9.40
75822;BMP180;64454;51.984;9.838;2023-03-14T06:02:25;97572.00;;;9.40
75822;BMP180;64454;51.984;9.838;2023-03-14T06:04:52;97578.00;;;9.40
75822;BMP180;64454;51.984;9.838;2023-03-14T06:07:20;97570.00;;;9.50
75822;BMP180;64454;51.984;9.838;2023-03-14T06:09:47;97566.00;;;9.50
75822;BMP180;64454;51.984;9.838;2023-03-14T06:12:14;97566.00;;;9.60
75822;BMP180;64454;51.984;9.838;2023-03-14T06:14:41;97586.00;;;9.50
75822;BMP180;64454;51.984;9.838;2023-03-14T06:17:07;97582.00;;;9.70
75822;BMP180;64454;51.984;9.838;2023-03-14T06:19:34;97582.00;;;9.70
75822;BMP180;64454;51.984;9.838;2023-03-14T06:22:01;97588.00;;;9.80
75822;BMP180;64454;51.984;9.838;2023-03-14T06:24:29;97593.00;;;9.80
75822;BMP180;64454;51.984;9.838;2023-03-14T06:26:56;97600.00;;;9.90
75822;BMP180;64454;51.984;9.838;2023-03-14T06:29:23;97603.00;;;10.10
75822;BMP180;64454;51.984;9.838;2023-03-14T06:31:49;97613.00;;;10.10
75822;BMP180;64454;51.984;9.838;2023-03-14T06:34:18;97606.00;;;10.00
75822;BMP180;64454;51.984;9.838;2023-03-14T06:36:45;97608.00;;;10.10
75822;BMP180;64454;51.984;9.838;2023-03-14T06:39:13;97598.00;;;10.00
75822;BMP180;64454;51.984;9.838;2023-03-14T06:41:41;97597.00;;;9.90
75822;BMP180;64454;51.984;9.838;2023-03-14T06:44:09;97596.00;;;9.70
75822;BMP180;64454;51.984;9.838;2023-03-14T06:46:35;97595.00;;;9.90
75822;BMP180;64454;51.984;9.838;2023-03-14T06:49:02;97586.00;;;9.90
75822;BMP180;64454;51.984;9.838;2023-03-14T06:51:29;97586.00;;;9.80
75822;BMP180;64454;51.984;9.838;2023-03-14T06:53:56;97575.00;;;10.00
75822;BMP180;64454;51.984;9.838;2023-03-14T06:56:22;97585.00;;;10.10
75822;BMP180;64454;51.984;9.838;2023-03-14T06:58:51;97578.00;;;9.80
75822;BMP180;64454;51.984;9.838;2023-03-14T07:01:24;97589.00;;;10.00
75822;BMP180;64454;51.984;9.838;2023-03-14T07:03:51;97582.00;;;10.00
75822;BMP180;64454;51.984;9.838;2023-03-14T07:06:18;97589.00;;;9.90
75822;BMP180;64454;51.984;9.838;2023-03-14T07:08:45;97584.00;;;10.00
75822;BMP180;64454;51.984;9.838;2023-03-14T07:11:12;97578.00;;;10.00
75822;BMP180;64454;51.984;9.838;2023-03-14T07:13:39;97587.00;;;10.00
75822;BMP180;64454;51.984;9.838;2023-03-14T07:16:08;97586.00;;;10.00
75822;BMP180;64454;51.984;9.838;2023-03-14T07:18:35;97577.00;;;10.10
75822;BMP180;64454;51.984;9.838;2023-03-14T07:21:03;97575.00;;;10.10
75822;BMP180;64454;51.984;9.838;2023-03-14T07:23:30;97577.00;;;10.40
75822;BMP180;64454;51.984;9.838;2023-03-14T07:25:57;97573.00;;;10.50
75822;BMP180;64454;51.984;9.838;2023-03-14T07:28:23;97575.00;;;10.40
75822;BMP180;64454;51.984;9.838;2023-03-14T07:30:50;97571.00;;;10.50
75822;BMP180;64454;51.984;9.838;2023-03-14T07:33:19;97572.00;;;10.60
75822;BMP180;64454;51.984;9.838;2023-03-14T07:35:47;97573.00;;;10.50
75822;BMP180;64454;51.984;9.838;2023-03-14T07:38:14;97567.00;;;10.70
75822;BMP180;64454;51.984;9.838;2023-03-14T07:40:40;97584.00;;;10.90
75822;BMP180;64454;51.984;9.838;2023-03-14T07:43:07;97557.00;;;10.90
75822;BMP180;64454;51.984;9.838;2023-03-14T07:45:34;97554.00;;;10.90
75822;BMP180;64454;51.984;9.838;2023-03-14T07:48:01;97552.00;;;11.00
75822;BMP180;64454;51.984;9.838;2023-03-14T07:50:29;97546.00;;;11.00
75822;BMP180;64454;51.984;9.838;2023-03-14T07:52:56;97562.00;;;11.20
75822;BMP180;64454;51.984;9.838;2023-03-14T07:55:23;97557.00;;;11.30
75822;BMP180;64454;51.984;9.838;2023-03-14T07:57:50;97572.00;;;11.20
75822;BMP180;64454;51.984;9.838;2023-03-14T08:00:18;97566.00;;;11.30
75822;BMP180;64454;51.984;9.838;2023-03-14T08:02:44;97560.00;;;11.10
75822;BMP180;64454;51.984;9.838;2023-03-14T08:05:12;97560.00;;;11.10
75822;BMP180;64454;51.984;9.838;2023-03-14T08:07:40;97570.00;;;11.00
75822;BMP180;64454;51.984;9.838;2023-03-14T08:10:08;97565.00;;;11.10
75822;BMP180;64454;51.984;9.838;2023-03-14T08:12:35;97577.00;;;11.20
75822;BMP180;64454;51.984;9.838;2023-03-14T08:15:03;97586.00;;;11.10
75822;BMP180;64454;51.984;9.838;2023-03-14T08:17:30;97576.00;;;11.10
75822;BMP180;64454;51.984;9.838;2023-03-14T08:19:56;97592.00;;;11.20
75822;BMP180;64454;51.984;9.838;2023-03-14T08:22:23;97588.00;;;11.00
75822;BMP180;64454;51.984;9.838;2023-03-14T08:24:51;97591.00;;;11.10
75822;BMP180;64454;51.984;9.838;2023-03-14T08:27:18;97582.00;;;11.10
75822;BMP180;64454;51.984;9.838;2023-03-14T08:29:45;97586.00;;;11.00
75822;BMP180;64454;51.984;9.838;2023-03-14T08:32:12;97597.00;;;11.00
75822;BMP180;64454;51.984;9.838;2023-03-14T08:34:38;97579.00;;;11.10
75822;BMP180;64454;51.984;9.838;2023-03-14T08:37:05;97573.00;;;11.20
75822;BMP180;64454;51.984;9.838;2023-03-14T08:39:32;97574.00;;;11.20
75822;BMP180;64454;51.984;9.838;2023-03-14T08:42:00;97561.00;;;11.40
75822;BMP180;64454;51.984;9.838;2023-03-14T08:44:27;97573.00;;;11.40
75822;BMP180;64454;51.984;9.838;2023-03-14T08:46:54;97569.00;;;11.30
75822;BMP180;64454;51.984;9.838;2023-03-14T08:49:21;97568.00;;;11.70
75822;BMP180;64454;51.984;9.838;2023-03-14T08:51:48;97574.00;;;11.40
75822;BMP180;64454;51.984;9.838;2023-03-14T08:54:19;97574.00;;;11.30
75822;BMP180;64454;51.984;9.838;2023-03-14T08:56:46;97586.00;;;11.50
75822;BMP180;64454;51.984;9.838;2023-03-14T08:59:16;97570.00;;;11.20
75822;BMP180;64454;51.984;9.838;2023-03-14T09:01:44;97583.00;;;11.10
75822;BMP180;64454;51.984;9.838;2023-03-14T09:04:11;97581.00;;;11.30
75822;BMP180;64454;51.984;9.838;2023-03-14T09:06:39;97576.00;;;11.40
75822;BMP180;64454;51.984;9.838;2023-03-14T09:09:06;97576.00;;;11.40
75822;BMP180;64454;51.984;9.838;2023-03-14T09:11:33;97566.00;;;11.60
75822;BMP180;64454;51.984;9.838;2023-03-14T09:14:00;97575.00;;;11.50
75822;BMP180;64454;51.984;9.838;2023-03-14T09:16:28;97582.00;;;11.30
75822;BMP180;64454;51.984;9.838;2023-03-14T09:18:55;97588.00;;;11.20
75822;BMP180;64454;51.984;9.838;2023-03-14T09:21:25;97581.00;;;11.20
75822;BMP180;64454;51.984;9.838;2023-03-14T09:23:53;97588.00;;;11.40
75822;BMP180;64454;51.984;9.838;2023-03-14T09:26:20;97591.00;;;11.30
75822;BMP180;64454;51.984;9.838;2023-03-14T09:28:46;97598.00;;;11.20
75822;BMP180;64454;51.984;9.838;2023-03-14T09:31:14;97590.00;;;11.20
75822;BMP180;64454;51.984;9.838;2023-03-14T09:33:43;97593.00;;;11.60
75822;BMP180;64454;51.984;9.838;2023-03-14T09:36:10;97607.00;;;11.90
75822;BMP180;64454;51.984;9.838;2023-03-14T09:38:37;97606.00;;;11.70
75822;BMP180;64454;51.984;9.838;2023-03-14T09:41:15;97615.00;;;11.50
75822;BMP180;64454;51.984;9.838;2023-03-14T09:43:45;97605.00;;;11.60
75822;BMP180;64454;51.984;9.838;2023-03-14T09:46:14;97608.00;;;11.50
75822;BMP180;64454;51.984;9.838;2023-03-14T09:48:43;97616.00;;;11.60
75822;BMP180;64454;51.984;9.838;2023-03-14T09:51:15;97614.00;;;11.50
75822;BMP180;64454;51.984;9.838;2023-03-14T09:53:46;97615.00;;;11.60
75822;BMP180;64454;51.984;9.838;2023-03-14T09:56:18;97615.00;;;11.50
75822;BMP180;64454;51.984;9.838;2023-03-14T09:58:51;97617.00;;;11.70
75822;BMP180;64454;51.984;9.838;2023-03-14T10:01:25;97616.00;;;11.20
75822;BMP180;64454;51.984;9.838;2023-03-14T10:03:56;97624.00;;;11.50
75822;BMP180;64454;51.984;9.838;2023-03-14T10:06:27;97606.00;;;11.40
75822;BMP180;64454;51.984;9.838;2023-03-14T10:08:55;97614.00;;;11.00
75822;BMP180;64454;51.984;9.838;2023-03-14T10:11:23;97612.00;;;11.50
75822;BMP180;64454;51.984;9.838;2023-03-14T10:14:05;97612.00;;;11.60
75822;BMP180;64454;51.984;9.838;2023-03-14T10:16:36;97607.00;;;11.80
75822;BMP180;64454;51.984;9.838;2023-03-14T10:19:09;97608.00;;;12.00
75822;BMP180;64454;51.984;9.838;2023-03-14T10:21:38;97601.00;;;12.00
75822;BMP180;64454;51.984;9.838;2023-03-14T10:24:19;97604.00;;;12.20
75822;BMP180;64454;51.984;9.838;2023-03-14T10:26:49;97599.00;;;11.80
75822;BMP180;64454;51.984;9.838;2023-03-14T10:29:17;97593.00;;;11.60
75822;BMP180;64454;51.984;9.838;2023-03-14T10:31:51;97604.00;;;11.70
75822;BMP180;64454;51.984;9.838;2023-03-14T10:34:25;97609.00;;;12.00
75822;BMP180;64454;51.984;9.838;2023-03-14T10:36:54;97600.00;;;12.00
75822;BMP180;64454;51.984;9.838;2023-03-14T10:39:29;97604.00;;;11.70
75822;BMP180;64454;51.984;9.838;2023-03-14T10:42:04;97602.00;;;11.90
75822;BMP180;64454;51.984;9.838;2023-03-14T10:44:34;97611.00;;;11.70
75822;BMP180;64454;51.984;9.838;2023-03-14T10:47:04;97606.00;;;11.70
75822;BMP180;64454;51.984;9.838;2023-03-14T10:49:35;97606.00;;;11.90
75822;BMP180;64454;51.984;9.838;2023-03-14T10:52:18;97606.00;;;12.70
75822;BMP180;64454;51.984;9.838;2023-03-14T10:54:49;97593.00;;;12.90
75822;BMP180;64454;51.984;9.838;2023-03-14T10:57:20;97596.00;;;13.30
75822;BMP180;64454;51.984;9.838;2023-03-14T10:59:48;97593.00;;;13.20
75822;BMP180;64454;51.984;9.838;2023-03-14T11:02:34;97604.00;;;12.70
75822;BMP180;64454;51.984;9.838;2023-03-14T11:05:28;97611.00;;;13.00
75822;BMP180;64454;51.984;9.838;2023-03-14T11:08:02;97611.00;;;12.50
75822;BMP180;64454;51.984;9.838;2023-03-14T11:10:34;97608.00;;;12.70
75822;BMP180;64454;51.984;9.838;2023-03-14T11:13:16;97610.00;;;12.50
75822;BMP180;64454;51.984;9.838;2023-03-14T11:15:56;97617.00;;;12.30
75822;BMP180;64454;51.984;9.838;2023-03-14T11:18:54;97621.00;;;12.00
75822;BMP180;64454;51.984;9.838;2023-03-14T11:21:32;97613.00;;;12.10
75822;BMP180;64454;51.984;9.838;2023-03-14T11:24:18;97604.00;;;12.10
75822;BMP180;64454;51.984;9.838;2023-03-14T11:26:56;97613.00;;;12.70
75822;BMP180;64454;51.984;9.838;2023-03-14T11:29:37;97609.00;;;12.70
75822;BMP180;64454;51.984;9.838;2023-03-14T11:32:14;97610.00;;;12.70
75822;BMP180;64454;51.984;9.838;2023-03-14T11:34:51;97615.00;;;12.50
75822;BMP180;64454;51.984;9.838;2023-03-14T11:37:27;97620.00;;;12.30
75822;BMP180;64454;51.984;9.838;2023-03-14T11:40:05;97622.00;;;12.10
75822;BMP180;64454;51.984;9.838;2023-03-14T11:42:35;97629.00;;;12.00
75822;BMP180;64454;51.984;9.838;2023-03-14T11:45:10;97627.00;;;11.70
75822;BMP180;64454;51.984;9.838;2023-03-14T11:47:43;97636.00;;;11.80
75822;BMP180;64454;51.984;9.838;2023-03-14T11:50:19;97638.00;;;11.70
75822;BMP180;64454;51.984;9.838;2023-03-14T11:52:54;97652.00;;;11.60
75822;BMP180;64454;51.984;9.838;2023-03-14T11:55:28;97658.00;;;11.60
75822;BMP180;64454;51.984;9.838;2023-03-14T11:58:03;97676.00;;;11.30
75822;BMP180;64454;51.984;9.838;2023-03-14T12:00:35;97687.00;;;11.10
75822;BMP180;64454;51.984;9.838;2023-03-14T12:03:11;97735.00;;;10.40
75822;BMP180;64454;51.984;9.838;2023-03-14T12:05:52;97762.00;;;10.00
75822;BMP180;64454;51.984;9.838;2023-03-14T12:08:50;97790.00;;;9.80
75822;BMP180;64454;51.984;9.838;2023-03-14T12:11:28;97780.00;;;9.80
75822;BMP180;64454;51.984;9.838;2023-03-14T12:13:56;97803.00;;;9.30
75822;BMP180;64454;51.984;9.838;2023-03-14T12:16:34;97825.00;;;9.20
75822;BMP180;64454;51.984;9.838;2023-03-14T12:19:33;97839.00;;;9.00
75822;BMP180;64454;51.984;9.838;2023-03-14T12:22:23;97845.00;;;8.80
75822;BMP180;64454;51.984;9.838;2023-03-14T12:24:59;97868.00;;;8.50
75822;BMP180;64454;51.984;9.838;2023-03-14T12:28:16;97883.00;;;8.30
75822;BMP180;64454;51.984;9.838;2023-03-14T12:30:44;97892.00;;;8.40
75822;BMP180;64454;51.984;9.838;2023-03-14T12:33:33;97905.00;;;8.60
75822;BMP180;64454;51.984;9.838;2023-03-14T12:39:27;97932.00;;;8.10
75822;BMP180;64454;51.984;9.838;2023-03-14T12:42:05;97949.00;;;8.00
75822;BMP180;64454;51.984;9.838;2023-03-14T12:44:47;97974.00;;;7.60
75822;BMP180;64454;51.984;9.838;2023-03-14T12:47:48;97996.00;;;7.50
75822;BMP180;64454;51.984;9.838;2023-03-14T12:50:26;98021.00;;;7.60
75822;BMP180;64454;51.984;9.838;2023-03-14T12:56:48;97984.00;;;7.20
75822;BMP180;64454;51.984;9.838;2023-03-14T12:59:31;98036.00;;;6.80
75822;BMP180;64454;51.984;9.838;2023-03-14T13:02:13;98045.00;;;6.80
75822;BMP180;64454;51.984;9.838;2023-03-14T13:04:46;98063.00;;;6.70
75822;BMP180;64454;51.984;9.838;2023-03-14T13:07:33;98086.00;;;6.70
75822;BMP180;64454;51.984;9.838;2023-03-14T13:10:19;98106.00;;;6.80
75822;BMP180;64454;51.984;9.838;2023-03-14T13:12:54;98115.00;;;6.70
75822;BMP180;64454;51.984;9.838;2023-03-14T13:15:29;98123.00;;;6.80
75822;BMP180;64454;51.984;9.838;2023-03-14T13:18:11;98138.00;;;6.70
75822;BMP180;64454;51.984;9.838;2023-03-14T13:20:45;98145.00;;;6.70
75822;BMP180;64454;51.984;9.838;2023-03-14T13:23:21;98154.00;;;6.70
75822;BMP180;64454;51.984;9.838;2023-03-14T13:25:48;98157.00;;;6.80
75822;BMP180;64454;51.984;9.838;2023-03-14T13:28:16;98157.00;;;6.80
75822;BMP180;64454;51.984;9.838;2023-03-14T13:30:46;98159.00;;;6.60
75822;BMP180;64454;51.984;9.838;2023-03-14T13:33:16;98179.00;;;6.60
75822;BMP180;64454;51.984;9.838;2023-03-14T13:35:46;98184.00;;;6.80
75822;BMP180;64454;51.984;9.838;2023-03-14T13:38:19;98189.00;;;6.60
75822;BMP180;64454;51.984;9.838;2023-03-14T13:40:47;98184.00;;;6.60
75822;BMP180;64454;51.984;9.838;2023-03-14T13:43:18;98203.00;;;6.80
75822;BMP180;64454;51.984;9.838;2023-03-14T13:45:52;98218.00;;;6.70
75822;BMP180;64454;51.984;9.838;2023-03-14T13:48:23;98220.00;;;6.90
75822;BMP180;64454;51.984;9.838;2023-03-14T13:50:56;98217.00;;;6.70
75822;BMP180;64454;51.984;9.838;2023-03-14T13:53:25;98236.00;;;6.90
75822;BMP180;64454;51.984;9.838;2023-03-14T13:55:52;98245.00;;;6.90
75822;BMP180;64454;51.984;9.838;2023-03-14T13:58:23;98243.00;;;6.90
75822;BMP180;64454;51.984;9.838;2023-03-14T14:01:00;98265.00;;;7.10
75822;BMP180;64454;51.984;9.838;2023-03-14T14:03:31;98281.00;;;7.10
75822;BMP180;64454;51.984;9.838;2023-03-14T14:05:58;98288.00;;;7.10
75822;BMP180;64454;51.984;9.838;2023-03-14T14:08:26;98308.00;;;7.10
75822;BMP180;64454;51.984;9.838;2023-03-14T14:10:58;98317.00;;;6.90
75822;BMP180;64454;51.984;9.838;2023-03-14T14:13:31;98326.00;;;6.70
75822;BMP180;64454;51.984;9.838;2023-03-14T14:16:01;98338.00;;;6.90
75822;BMP180;64454;51.984;9.838;2023-03-14T14:18:31;98337.00;;;6.60
75822;BMP180;64454;51.984;9.838;2023-03-14T14:20:59;98351.00;;;6.90
75822;BMP180;64454;51.984;9.838;2023-03-14T14:23:28;98360.00;;;7.00
75822;BMP180;64454;51.984;9.838;2023-03-14T14:25:58;98371.00;;;7.20
75822;BMP180;64454;51.984;9.838;2023-03-14T14:28:28;98381.00;;;6.90
75822;BMP180;64454;51.984;9.838;2023-03-14T14:31:16;98380.00;;;7.10
75822;BMP180;64454;51.984;9.838;2023-03-14T14:33:52;98400.00;;;7.40
75822;BMP180;64454;51.984;9.838;2023-03-14T14:36:23;98404.00;;;7.10